Terminal Aerodrome Forecast
Issued by NWS Charleston, WV

Home | Current Version | Previous Version | Text Only | Print | Product List | Glossary On
Versions: 1 2 3 4 5 6 7 8 9 10 11 12 13 14 15 16 17 18 19 20 21 22
000
FTUS41 KRLX 290500
TAFHTS
TAF
KHTS 290522Z 2906/3006 VRB03KT P6SM SCT200
     FM291400 18007KT P6SM SCT150
     FM291900 20011G17KT P6SM BKN080
     FM292200 20007KT P6SM BKN040=

USA.gov is the U.S. government's official web portal to all federal, state and local government web resources and services.